Time;durP1;ratioP1;P1;durP2;ratioP2;P2;SDS_P1;SDS_P2;PMS_P1;PMS_P2;Temp;Humidity;BMP_temperature;BMP_pressure;BME280_temperature;BME280_humidity;BME280_pressure;Samples;Min_cycle;Max_cycle;Signal;HPM_P1;HPM_P2
2022/09/24 00:01:21;;;;;;;14.93;8.02;;;;;;;13.11;95.74;101081.38;4966264;28;20038;-75
2022/09/24 00:03:55;;;;;;;10.55;6.90;;;;;;;13.11;95.74;101077.91;4978892;28;20408;-75
2022/09/24 00:06:21;;;;;;;13.25;7.35;;;;;;;13.09;95.86;101083.31;4991373;28;20041;-75
2022/09/24 00:08:50;;;;;;;14.23;7.85;;;;;;;13.08;96.02;101078.28;4985823;28;20038;-75
2022/09/24 00:11:19;;;;;;;12.65;8.75;;;;;;;13.07;96.38;101077.44;4982855;28;20113;-75
2022/09/24 00:13:46;;;;;;;14.32;7.93;;;;;;;13.08;96.57;101078.28;4978811;28;21709;-75
2022/09/24 00:16:14;;;;;;;11.52;6.68;;;;;;;13.09;96.37;101069.47;4980678;28;20031;-75
2022/09/24 00:18:40;;;;;;;17.08;9.57;;;;;;;13.06;96.08;101075.84;4982477;28;20019;-75
2022/09/24 00:21:19;;;;;;;13.10;8.38;;;;;;;13.03;96.40;101074.38;4977599;28;20633;-75
2022/09/24 00:23:51;;;;;;;16.45;8.52;;;;;;;13.02;96.74;101070.13;4957568;28;20542;-75
2022/09/24 00:29:02;;;;;;;15.80;7.40;;;;;;;12.97;97.44;101059.41;4978080;28;20043;-75
2022/09/24 00:31:27;;;;;;;13.75;8.10;;;;;;;12.96;97.51;101060.41;4981348;28;20045;-75
2022/09/24 00:33:53;;;;;;;17.67;8.98;;;;;;;12.96;97.40;101060.41;4977284;28;20042;-75
2022/09/24 00:36:20;;;;;;;12.48;6.97;;;;;;;12.96;97.27;101057.78;4981050;28;20484;-75
2022/09/24 00:38:51;;;;;;;12.63;7.50;;;;;;;12.98;96.78;101060.25;4979807;28;20052;-75
2022/09/24 00:41:19;;;;;;;12.57;7.28;;;;;;;12.97;96.81;101066.41;4981606;28;20046;-75
2022/09/24 00:43:46;;;;;;;15.82;7.60;;;;;;;12.96;97.02;101059.56;4978169;28;21669;-75
2022/09/24 00:46:27;;;;;;;14.75;7.93;;;;;;;12.95;97.14;101058.75;4982490;28;20061;-75
2022/09/24 00:48:59;;;;;;;13.77;8.02;;;;;;;12.95;96.94;101063.16;4984194;28;20769;-75
2022/09/24 00:51:27;;;;;;;12.82;8.20;;;;;;;12.95;96.86;101063.16;4980828;28;20038;-75
2022/09/24 00:53:58;;;;;;;11.75;7.45;;;;;;;12.94;96.93;101067.56;4984884;28;20566;-75
2022/09/24 00:56:24;;;;;;;12.75;7.35;;;;;;;12.92;96.70;101059.09;4978326;28;20058;-75
2022/09/24 00:58:55;;;;;;;15.48;8.23;;;;;;;12.90;96.98;101055.03;4980934;28;20034;-75
2022/09/24 01:01:24;;;;;;;16.80;8.63;;;;;;;12.86;97.30;101057.13;4983833;28;20137;-75
2022/09/24 01:03:54;;;;;;;12.32;8.25;;;;;;;12.83;97.65;101054.88;4984739;28;20066;-75
2022/09/24 01:06:19;;;;;;;11.68;7.75;;;;;;;12.80;97.87;101050.00;4981865;28;20121;-75
2022/09/24 01:08:46;;;;;;;20.25;9.07;;;;;;;12.79;97.97;101054.41;4985551;28;20035;-74
2022/09/24 01:11:54;;;;;;;13.55;7.45;;;;;;;12.78;97.99;101059.75;4981788;28;20034;-75
2022/09/24 01:14:40;;;;;;;13.63;8.10;;;;;;;12.75;98.09;101055.72;4975166;28;20073;-75
2022/09/24 01:17:27;;;;;;;13.52;8.00;;;;;;;12.71;98.34;101048.38;4968901;28;20133;-75
2022/09/24 01:20:23;;;;;;;15.27;8.23;;;;;;;12.69;98.66;101045.94;4985660;28;20034;-75
2022/09/24 01:23:02;;;;;;;11.80;8.23;;;;;;;12.64;98.93;101041.25;4982813;28;20035;-75
2022/09/24 01:25:47;;;;;;;13.70;8.93;;;;;;;12.62;99.25;101047.56;4969840;28;20038;-75
2022/09/24 01:28:24;;;;;;;17.67;8.30;;;;;;;12.61;99.37;101040.75;4988310;28;20038;-75
2022/09/24 01:30:58;;;;;;;17.38;8.10;;;;;;;12.60;99.41;101039.94;4986828;28;20030;-74
2022/09/24 01:33:26;;;;;;;17.17;7.90;;;;;;;12.59;99.61;101030.50;4985181;28;20030;-75
2022/09/24 01:35:57;;;;;;;13.95;7.97;;;;;;;12.61;99.36;101030.34;4987180;28;20119;-75
2022/09/24 01:38:27;;;;;;;12.95;7.55;;;;;;;12.61;99.42;101031.16;4985657;28;20038;-75
2022/09/24 01:40:55;;;;;;;14.13;8.32;;;;;;;12.61;99.53;101030.34;4987802;28;20393;-75
2022/09/24 01:43:25;;;;;;;12.88;7.78;;;;;;;12.61;99.36;101020.75;4985395;28;20037;-74
2022/09/24 01:45:51;;;;;;;13.40;7.85;;;;;;;12.61;99.23;101019.94;4985307;28;20042;-75
2022/09/24 01:48:20;;;;;;;13.60;8.43;;;;;;;12.62;99.36;101014.56;4987891;28;20065;-75
2022/09/24 01:50:54;;;;;;;14.10;7.82;;;;;;;12.61;99.23;101014.72;4984469;28;20027;-75
2022/09/24 01:53:23;;;;;;;15.05;8.13;;;;;;;12.61;99.16;101012.94;4988216;28;20034;-75
2022/09/24 01:56:06;;;;;;;11.15;7.20;;;;;;;12.61;99.11;101006.94;4967832;28;20041;-75
2022/09/24 01:58:57;;;;;;;14.35;8.75;;;;;;;12.59;99.10;101006.28;4986810;28;20498;-75
2022/09/24 02:01:59;;;;;;;15.27;8.27;;;;;;;12.53;99.25;100997.34;4981666;28;21568;-75
2022/09/24 02:04:27;;;;;;;14.43;8.68;;;;;;;12.46;99.49;101010.19;4981365;28;20105;-75
2022/09/24 02:06:59;;;;;;;13.13;8.15;;;;;;;12.43;99.72;101007.09;4969164;28;20139;-75
2022/09/24 02:09:33;;;;;;;14.05;7.32;;;;;;;12.42;100.00;101013.28;4986910;28;20084;-75
2022/09/24 02:12:05;;;;;;;13.70;8.25;;;;;;;12.40;100.00;101010.84;4981835;28;20489;-75
2022/09/24 02:14:36;;;;;;;15.37;8.73;;;;;;;12.41;100.00;101006.44;4985025;28;20061;-75
2022/09/24 02:17:03;;;;;;;18.45;9.68;;;;;;;12.42;100.00;101000.28;4983546;28;20109;-75
2022/09/24 02:19:30;;;;;;;17.65;9.95;;;;;;;12.39;100.00;101005.78;4986613;28;20070;-75
2022/09/24 02:21:57;;;;;;;19.60;10.05;;;;;;;12.35;100.00;101007.09;4982959;28;20030;-74
2022/09/24 02:24:35;;;;;;;16.75;9.57;;;;;;;12.34;100.00;100988.09;4987957;28;20048;-75
2022/09/24 02:27:01;;;;;;;19.25;10.52;;;;;;;12.36;100.00;100996.53;4981596;28;20057;-75
2022/09/24 02:29:27;;;;;;;19.23;11.00;;;;;;;12.36;100.00;100990.53;4986735;28;20519;-75
2022/09/24 02:31:55;;;;;;;18.23;10.57;;;;;;;12.36;100.00;100991.34;4984489;28;20037;-75
2022/09/24 02:34:28;;;;;;;17.70;10.10;;;;;;;12.37;100.00;100984.34;4980892;28;20042;-75
2022/09/24 02:36:59;;;;;;;18.97;10.97;;;;;;;12.34;100.00;100975.09;4987150;28;20039;-75
2022/09/24 02:39:25;;;;;;;16.77;9.95;;;;;;;12.33;100.00;100988.25;4984682;28;20528;-75
2022/09/24 02:41:52;;;;;;;16.55;9.88;;;;;;;12.33;100.00;100985.66;4963197;28;20170;-75
2022/09/24 02:44:18;;;;;;;16.40;10.07;;;;;;;12.31;100.00;100979.81;4987143;28;20034;-75
2022/09/24 02:46:45;;;;;;;18.00;10.13;;;;;;;12.32;100.00;100977.03;4980335;28;20472;-75
2022/09/24 02:49:11;;;;;;;16.40;10.32;;;;;;;12.33;100.00;100980.44;4982634;28;20042;-75
2022/09/24 02:51:36;;;;;;;18.48;10.52;;;;;;;12.33;100.00;100970.84;4986532;28;20033;-75
2022/09/24 02:54:03;;;;;;;16.48;9.07;;;;;;;12.34;100.00;100974.25;4982326;28;20038;-75
2022/09/24 02:56:29;;;;;;;15.90;9.95;;;;;;;12.32;100.00;100973.63;4984328;28;20127;-75
2022/09/24 02:58:55;;;;;;;16.98;10.55;;;;;;;12.31;100.00;100972.00;4982239;28;20519;-75
2022/09/24 03:01:21;;;;;;;15.73;10.23;;;;;;;12.29;100.00;100968.75;4979904;28;20515;-75
2022/09/24 03:03:47;;;;;;;16.13;10.35;;;;;;;12.27;100.00;100971.50;4985842;28;20447;-74
2022/09/24 03:06:12;;;;;;;18.10;10.98;;;;;;;12.26;100.00;100977.66;4981483;28;20153;-76
2022/09/24 03:08:39;;;;;;;17.60;10.07;;;;;;;12.24;100.00;100964.88;4984579;28;20035;-74
2022/09/24 03:11:04;;;;;;;16.50;10.40;;;;;;;12.22;100.00;100969.41;4984853;28;20056;-75
2022/09/24 03:13:30;;;;;;;22.48;12.48;;;;;;;12.20;100.00;100967.94;4984893;28;20484;-75
2022/09/24 03:15:55;;;;;;;18.55;11.88;;;;;;;12.20;100.00;100960.94;4985277;28;20068;-75
2022/09/24 03:18:21;;;;;;;21.67;12.52;;;;;;;12.20;100.00;100957.53;4969718;28;20431;-74
2022/09/24 03:21:11;;;;;;;21.45;12.90;;;;;;;12.16;100.00;100954.44;4986171;28;20038;-75
2022/09/24 03:23:37;;;;;;;20.48;12.13;;;;;;;12.16;100.00;100953.63;4983924;28;20031;-75
2022/09/24 03:26:03;;;;;;;21.38;12.05;;;;;;;12.15;100.00;100946.81;4985680;28;20045;-74
2022/09/24 03:28:28;;;;;;;20.30;11.25;;;;;;;12.16;100.00;100938.84;4967907;28;20104;-75
2022/09/24 03:31:00;;;;;;;21.20;12.07;;;;;;;12.17;100.00;100942.28;4967209;28;20042;-75
2022/09/24 03:33:46;;;;;;;22.58;12.18;;;;;;;12.18;100.00;100936.91;4984213;28;20035;-75
2022/09/24 03:36:21;;;;;;;20.70;10.95;;;;;;;12.18;100.00;100936.91;4961833;28;20082;-75
2022/09/24 03:38:48;;;;;;;19.58;11.27;;;;;;;12.18;100.00;100946.50;4984035;28;20037;-75
2022/09/24 03:41:15;;;;;;;23.08;12.15;;;;;;;12.16;100.00;100946.66;4976598;28;20066;-75
2022/09/24 03:43:40;;;;;;;19.92;12.20;;;;;;;12.12;100.00;100941.94;4982844;28;20710;-74
2022/09/24 03:46:07;;;;;;;17.73;10.73;;;;;;;12.10;100.00;100938.69;4978072;28;20045;-75
2022/09/24 03:48:35;;;;;;;41.63;24.30;;;;;;;12.08;100.00;100946.66;4982618;28;20094;-75
2022/09/24 03:51:11;;;;;;;30.10;17.83;;;;;;;12.05;100.00;100944.38;4982923;28;20077;-75
2022/09/24 03:53:37;;;;;;;30.90;17.67;;;;;;;12.03;100.00;100943.72;4984363;28;20034;-75
2022/09/24 03:56:04;;;;;;;30.58;16.30;;;;;;;12.03;100.00;100948.91;4983632;28;20558;-75
2022/09/24 03:58:34;;;;;;;30.05;16.02;;;;;;;12.04;100.00;100947.97;4981046;28;20102;-75
2022/09/24 04:01:00;;;;;;;30.02;15.77;;;;;;;12.02;100.00;100942.13;4983808;28;20034;-75
2022/09/24 04:03:26;;;;;;;24.40;13.23;;;;;;;12.03;100.00;100938.53;4984106;28;20030;-75
2022/09/24 04:05:51;;;;;;;25.95;13.88;;;;;;;12.02;100.00;100937.72;4982498;28;20047;-75
2022/09/24 04:08:20;;;;;;;22.48;13.60;;;;;;;12.02;100.00;100936.91;4983930;28;20068;-75
2022/09/24 04:10:47;;;;;;;22.45;13.27;;;;;;;12.04;100.00;100940.16;4980701;28;20049;-75
2022/09/24 04:13:13;;;;;;;22.75;12.75;;;;;;;12.01;100.00;100925.69;4995540;28;20038;-75
2022/09/24 04:15:38;;;;;;;22.20;12.60;;;;;;;12.03;100.00;100922.94;4983735;28;20127;-75
2022/09/24 04:18:04;;;;;;;20.77;12.73;;;;;;;12.01;100.00;100930.06;4984109;28;20582;-74
2022/09/24 04:20:30;;;;;;;22.15;12.57;;;;;;;12.01;100.00;100928.28;4965734;28;20038;-75
2022/09/24 04:22:57;;;;;;;24.63;12.40;;;;;;;12.01;100.00;100930.06;4984269;28;20034;-75
2022/09/24 04:25:24;;;;;;;22.30;11.77;;;;;;;12.02;100.00;100929.13;4964385;28;20117;-75
2022/09/24 04:27:55;;;;;;;20.25;11.85;;;;;;;12.01;100.00;100935.28;4983961;28;20034;-75
2022/09/24 04:30:22;;;;;;;20.90;11.80;;;;;;;12.00;100.00;100926.69;4986039;28;20427;-75
2022/09/24 04:32:50;;;;;;;22.90;12.15;;;;;;;11.99;100.00;100932.03;4984721;28;20041;-75
2022/09/24 04:35:16;;;;;;;24.02;13.77;;;;;;;11.98;100.00;100931.22;4984840;28;20031;-75
2022/09/24 04:37:41;;;;;;;30.05;13.52;;;;;;;11.98;100.00;100933.00;4983994;28;20030;-75
2022/09/24 04:40:11;;;;;;;35.80;16.23;;;;;;;12.04;100.00;100925.38;4984277;28;20038;-75
2022/09/24 04:42:38;;;;;;;28.05;13.88;;;;;;;12.00;100.00;100925.88;4984111;28;20034;-75
2022/09/24 04:45:08;;;;;;;31.30;14.68;;;;;;;12.00;100.00;100928.47;4967032;28;20768;-74
2022/09/24 04:47:35;;;;;;;28.55;14.68;;;;;;;11.97;100.00;100928.78;4981710;28;20040;-75
2022/09/24 04:50:01;;;;;;;31.35;15.40;;;;;;;11.98;100.00;100922.59;4966146;28;20084;-75
2022/09/24 04:52:28;;;;;;;35.70;15.15;;;;;;;12.00;100.00;100923.28;4980655;28;20026;-75
2022/09/24 04:54:56;;;;;;;29.60;15.05;;;;;;;11.98;100.00;100926.03;4966429;28;20501;-75
2022/09/24 04:57:22;;;;;;;32.85;14.63;;;;;;;11.93;100.00;100932.69;5000185;28;20411;-75
2022/09/24 04:59:48;;;;;;;31.85;14.98;;;;;;;11.88;100.00;100931.34;5001263;28;20038;-75
2022/09/24 05:02:13;;;;;;;29.48;14.32;;;;;;;11.88;100.00;100933.13;4988776;28;20035;-75
2022/09/24 05:04:39;;;;;;;34.00;15.27;;;;;;;11.88;100.00;100935.72;4971585;28;20030;-75
2022/09/24 05:07:04;;;;;;;31.52;14.25;;;;;;;11.87;100.00;100932.31;4985064;28;20555;-75
2022/09/24 05:09:33;;;;;;;28.90;14.52;;;;;;;11.88;100.00;100933.94;4984938;28;20074;-75
2022/09/24 05:11:59;;;;;;;35.72;14.32;;;;;;;11.88;100.00;100941.75;4981104;28;20069;-74
2022/09/24 05:14:25;;;;;;;29.02;13.85;;;;;;;11.90;100.00;100935.59;4988604;28;20069;-74
2022/09/24 05:16:50;;;;;;;26.65;13.45;;;;;;;11.91;100.00;100934.63;4997393;28;20053;-75
2022/09/24 05:19:16;;;;;;;32.67;14.13;;;;;;;11.90;100.00;100938.19;4983704;28;20094;-74
2022/09/24 05:21:41;;;;;;;34.17;14.07;;;;;;;11.90;100.00;100936.41;4986273;28;20038;-75
2022/09/24 05:24:07;;;;;;;29.42;13.55;;;;;;;11.91;100.00;100932.84;4971873;28;20502;-75
2022/09/24 05:29:17;;;;;;;34.80;14.70;;;;;;;11.93;100.00;100930.09;4987465;28;20122;-75
2022/09/24 05:31:42;;;;;;;26.25;14.07;;;;;;;11.91;100.00;100935.44;4986391;28;20444;-75
2022/09/24 05:34:08;;;;;;;29.10;14.02;;;;;;;11.91;100.00;100935.44;4986799;28;20034;-75
2022/09/24 05:36:34;;;;;;;34.88;14.35;;;;;;;11.91;100.00;100932.84;4979636;28;20034;-75
2022/09/24 05:38:59;;;;;;;27.77;14.55;;;;;;;11.91;100.00;100932.84;4983452;28;20042;-75
2022/09/24 05:41:25;;;;;;;29.60;14.52;;;;;;;11.92;100.00;100931.84;4986583;28;20049;-74
2022/09/24 05:43:50;;;;;;;27.55;13.90;;;;;;;11.94;100.00;100942.09;4987973;28;20041;-75
2022/09/24 05:46:16;;;;;;;28.00;14.43;;;;;;;11.94;100.00;100936.88;4969182;28;20046;-75
2022/09/24 05:48:41;;;;;;;29.17;13.55;;;;;;;11.92;100.00;100939.66;4985610;28;20022;-75
2022/09/24 05:51:07;;;;;;;26.30;12.90;;;;;;;11.94;100.00;100935.13;4969282;28;20110;-75
2022/09/24 05:53:33;;;;;;;29.73;14.88;;;;;;;12.00;100.00;100944.06;4985075;28;20506;-75
2022/09/24 05:55:59;;;;;;;31.80;13.52;;;;;;;11.99;100.00;100945.03;4983965;28;20085;-75
2022/09/24 05:58:25;;;;;;;25.30;14.00;;;;;;;11.96;100.00;100943.56;4987330;28;20038;-75
2022/09/24 06:00:50;;;;;;;26.67;12.80;;;;;;;11.96;100.00;100943.56;4983376;28;20046;-75
2022/09/24 06:03:18;;;;;;;39.88;14.65;;;;;;;11.99;100.00;100950.22;4987974;28;20041;-74
2022/09/24 06:05:48;;;;;;;24.17;13.20;;;;;;;12.02;100.00;100944.72;4969480;28;20036;-74
2022/09/24 06:08:19;;;;;;;29.23;14.18;;;;;;;12.05;100.00;100950.41;4983430;28;20112;-75
2022/09/24 06:10:46;;;;;;;27.88;13.73;;;;;;;12.11;100.00;100955.91;4984574;28;20161;-74
2022/09/24 06:13:13;;;;;;;22.40;12.48;;;;;;;12.15;100.00;100944.19;4986974;28;20038;-75
2022/09/24 06:15:40;;;;;;;28.27;14.02;;;;;;;12.18;100.00;100947.28;4984828;28;20031;-74
2022/09/24 06:18:05;;;;;;;24.60;13.45;;;;;;;12.21;100.00;100951.38;4971363;28;20922;-74
2022/09/24 06:20:31;;;;;;;30.20;14.27;;;;;;;12.22;100.00;100951.22;4986589;28;20018;-74
2022/09/24 06:22:57;;;;;;;28.00;13.45;;;;;;;12.23;100.00;100957.22;4985885;28;20049;-75
2022/09/24 06:25:24;;;;;;;21.67;13.00;;;;;;;12.26;100.00;100946.47;4986099;28;20045;-74
2022/09/24 06:28:01;;;;;;;27.88;12.35;;;;;;;12.29;100.00;100959.16;4984864;28;20035;-74
2022/09/24 06:30:30;;;;;;;27.63;13.35;;;;;;;12.33;100.00;100949.25;4984743;28;20525;-74
2022/09/24 06:33:04;;;;;;;28.08;13.43;;;;;;;12.36;100.00;100949.75;4984800;28;20030;-74
2022/09/24 06:35:33;;;;;;;25.90;13.68;;;;;;;12.40;100.00;100958.81;4986413;28;20054;-75
2022/09/24 06:37:58;;;;;;;23.02;12.98;;;;;;;12.44;100.00;100954.91;4982916;28;20039;-75
2022/09/24 06:40:25;;;;;;;29.95;13.43;;;;;;;12.48;100.00;100957.19;4983505;28;20093;-74
2022/09/24 06:42:54;;;;;;;20.58;13.35;;;;;;;12.53;100.00;100955.72;4988462;28;20084;-74
2022/09/24 06:45:20;;;;;;;29.88;12.27;;;;;;;12.59;100.00;100962.88;4984985;28;20049;-74
2022/09/24 06:47:56;;;;;;;48.95;22.35;;;;;;;12.67;100.00;100967.25;4982908;28;20045;-75
2022/09/24 06:50:23;;;;;;;33.63;17.02;;;;;;;12.74;100.00;100965.59;4986897;28;20475;-74
2022/09/24 06:52:49;;;;;;;27.35;13.73;;;;;;;12.83;100.00;100969.81;4986698;28;20027;-74
2022/09/24 06:55:15;;;;;;;21.58;12.27;;;;;;;12.87;100.00;100966.91;4985204;28;20049;-75
2022/09/24 06:57:41;;;;;;;23.70;12.32;;;;;;;12.89;100.00;100965.75;4988054;28;20026;-75
2022/09/24 07:00:07;;;;;;;23.92;13.30;;;;;;;12.93;100.00;100972.22;4982329;28;20036;-76
2022/09/24 07:02:32;;;;;;;24.90;13.23;;;;;;;12.97;100.00;100963.09;4970628;28;20023;-75
2022/09/24 07:04:58;;;;;;;21.63;13.85;;;;;;;13.00;100.00;100957.56;4964823;28;20100;-75
2022/09/24 07:07:30;;;;;;;24.75;12.77;;;;;;;13.04;100.00;100960.66;4985928;28;20030;-75
2022/09/24 07:09:56;;;;;;;25.15;12.75;;;;;;;13.06;100.00;100963.91;4985312;28;20045;-75
2022/09/24 07:12:22;;;;;;;22.42;12.55;;;;;;;13.07;100.00;100965.50;4984708;28;20034;-75
2022/09/24 07:14:48;;;;;;;23.55;11.85;;;;;;;13.10;100.00;100973.00;4985467;28;20034;-75
2022/09/24 07:17:14;;;;;;;26.48;12.65;;;;;;;13.14;100.00;100971.66;4983786;28;20037;-76
2022/09/24 07:19:40;;;;;;;24.15;13.27;;;;;;;13.15;100.00;100973.31;4964103;28;20035;-75
2022/09/24 07:22:06;;;;;;;22.23;11.38;;;;;;;13.18;100.00;100974.75;4987766;28;20047;-75
2022/09/24 07:24:32;;;;;;;25.45;12.07;;;;;;;13.19;100.00;100973.78;4986080;28;20034;-75
2022/09/24 07:26:57;;;;;;;26.55;12.10;;;;;;;13.22;100.00;100974.25;4986591;28;20479;-75
2022/09/24 07:29:23;;;;;;;26.67;13.07;;;;;;;13.24;100.00;100984.47;4985587;28;20034;-75
2022/09/24 07:31:48;;;;;;;22.13;12.70;;;;;;;13.25;100.00;100986.91;4986621;28;20038;-76
2022/09/24 07:34:15;;;;;;;25.23;13.82;;;;;;;13.27;100.00;100983.34;4985701;28;20034;-76
2022/09/24 07:36:41;;;;;;;27.60;13.70;;;;;;;13.29;100.00;100991.81;4984911;28;20223;-76
2022/09/24 07:39:07;;;;;;;23.42;12.90;;;;;;;13.31;100.00;100992.47;4987076;28;20042;-76
2022/09/24 07:41:33;;;;;;;30.00;14.02;;;;;;;13.31;100.00;100992.47;4984552;28;20030;-76
2022/09/24 07:43:58;;;;;;;24.08;12.68;;;;;;;13.33;99.68;100991.31;4966108;28;20039;-75
2022/09/24 07:46:24;;;;;;;24.13;12.25;;;;;;;13.34;99.02;100989.53;4986879;28;20113;-75
2022/09/24 07:48:55;;;;;;;22.42;12.73;;;;;;;13.38;98.95;100994.22;4988656;28;20520;-75
2022/09/24 07:51:26;;;;;;;22.85;12.02;;;;;;;13.41;99.03;100993.06;4985161;28;20041;-76
2022/09/24 07:53:51;;;;;;;23.67;10.30;;;;;;;13.44;99.07;100990.13;4986237;28;20038;-75
2022/09/24 07:56:18;;;;;;;19.98;10.65;;;;;;;13.47;98.68;100988.97;4984359;28;20038;-76
2022/09/24 07:58:44;;;;;;;22.20;10.90;;;;;;;13.51;98.48;100990.28;4986174;28;20022;-76
2022/09/24 08:01:09;;;;;;;23.15;11.90;;;;;;;13.53;98.45;100991.72;4984994;28;20524;-75
2022/09/24 08:03:35;;;;;;;19.60;11.30;;;;;;;13.58;98.28;100993.81;4963675;28;20061;-75
2022/09/24 08:06:03;;;;;;;26.77;12.45;;;;;;;13.65;98.17;100994.75;4990992;28;20042;-75
2022/09/24 08:08:28;;;;;;;19.73;11.88;;;;;;;13.72;97.72;100995.69;4986723;28;20088;-76
2022/09/24 08:10:54;;;;;;;18.83;10.23;;;;;;;13.75;97.37;100999.72;4984974;28;20451;-76
2022/09/24 08:13:19;;;;;;;19.45;10.50;;;;;;;13.79;96.54;100994.03;4982762;28;20037;-76
2022/09/24 08:15:44;;;;;;;21.73;11.15;;;;;;;13.83;96.28;100997.91;4983874;28;20023;-76
2022/09/24 08:18:10;;;;;;;16.98;9.10;;;;;;;13.90;95.62;100995.44;4978365;28;20057;-76
2022/09/24 08:20:37;;;;;;;24.50;11.13;;;;;;;14.02;94.73;100994.03;4969689;28;20157;-76
2022/09/24 08:23:04;;;;;;;20.17;11.20;;;;;;;14.13;92.66;100994.63;4988660;28;20038;-76
2022/09/24 08:25:30;;;;;;;23.58;10.65;;;;;;;14.18;86.46;100995.72;4986960;28;20042;-77
2022/09/24 08:28:05;;;;;;;18.20;9.82;;;;;;;14.32;85.57;101003.75;4987142;28;20491;-76
2022/09/24 08:30:31;;;;;;;16.70;9.60;;;;;;;14.41;86.49;100997.50;4985196;28;20060;-76
2022/09/24 08:32:57;;;;;;;17.63;9.07;;;;;;;14.52;87.55;100999.69;4991480;28;20085;-76
2022/09/24 08:35:22;;;;;;;20.33;10.43;;;;;;;14.67;88.20;100997.09;4989128;28;20049;-76
2022/09/24 08:37:48;;;;;;;18.38;10.00;;;;;;;14.79;88.00;100998.31;4991085;28;20058;-76
2022/09/24 08:40:21;;;;;;;22.23;9.23;;;;;;;14.88;86.98;100991.22;4973162;28;20089;-76
2022/09/24 08:42:54;;;;;;;;;;;;;;;14.94;85.92;100997.50;4988492;28;20030;-77
2022/09/24 08:48:19;;;;;;;21.10;10.63;;;;;;;15.02;84.89;101001.81;4986839;28;20415;-76
2022/09/24 08:50:59;;;;;;;15.73;9.43;;;;;;;15.01;84.00;100992.38;4989087;28;20062;-77
2022/09/24 08:53:47;;;;;;;14.18;9.23;;;;;;;14.96;84.11;100996.31;4985097;28;20106;-76
2022/09/24 08:56:16;;;;;;;20.95;9.70;;;;;;;14.96;83.65;101001.56;4980794;28;20088;-76
2022/09/24 08:58:51;;;;;;;16.67;8.45;;;;;;;15.07;83.05;100997.69;4981549;28;20038;-76
2022/09/24 09:01:58;;;;;;;13.38;8.27;;;;;;;15.22;83.10;101002.91;4989481;28;20042;-76
2022/09/24 09:04:29;;;;;;;17.52;8.40;;;;;;;15.43;83.52;100994.31;4984569;28;20031;-76
2022/09/24 09:07:14;;;;;;;20.00;8.70;;;;;;;15.54;82.47;100995.66;4982990;28;20613;-76
2022/09/24 09:09:48;;;;;;;18.88;9.07;;;;;;;15.66;82.11;100999.41;4964928;28;20031;-76
2022/09/24 09:12:25;;;;;;;19.73;8.85;;;;;;;15.81;80.46;100999.38;4988498;28;20539;-76
2022/09/24 09:15:02;;;;;;;11.35;6.80;;;;;;;15.92;79.67;100996.28;4986867;28;20100;-76
2022/09/24 09:17:46;;;;;;;14.82;7.30;;;;;;;16.03;77.67;101000.22;4986909;28;20030;-75
2022/09/24 09:20:31;;;;;;;19.50;8.40;;;;;;;16.15;77.95;100993.47;4998572;28;20041;-76
2022/09/24 09:23:03;;;;;;;20.15;8.43;;;;;;;16.37;76.50;101000.47;4986329;28;20700;-75
2022/09/24 09:25:34;;;;;;;16.95;7.60;;;;;;;16.70;76.04;101000.72;4984433;28;20125;-75
2022/09/24 09:28:06;;;;;;;16.63;7.82;;;;;;;16.91;74.74;100995.47;4981551;28;20034;-75
2022/09/24 09:30:46;;;;;;;14.05;7.13;;;;;;;16.99;73.67;100996.28;4983021;28;20042;-75
2022/09/24 09:33:32;;;;;;;14.57;7.05;;;;;;;17.16;71.82;100999.41;4984230;28;20038;-77
2022/09/24 09:36:01;;;;;;;11.95;6.55;;;;;;;17.07;71.22;100996.94;4987292;28;20035;-76
2022/09/24 09:38:37;;;;;;;14.23;7.28;;;;;;;17.03;72.37;101000.16;4983355;28;20032;-75
2022/09/24 09:41:30;;;;;;;12.02;6.65;;;;;;;17.08;72.66;100997.75;4982832;28;20125;-75
2022/09/24 09:44:10;;;;;;;12.85;6.30;;;;;;;17.06;72.03;100997.94;4985767;28;20078;-75
2022/09/24 09:46:40;;;;;;;13.57;6.43;;;;;;;17.12;70.87;100989.31;4968718;28;20035;-76
2022/09/24 09:49:06;;;;;;;12.55;7.03;;;;;;;17.01;70.33;100983.81;4980836;28;20038;-76
2022/09/24 09:51:43;;;;;;;13.48;7.22;;;;;;;16.97;71.51;100983.41;4970392;28;20089;-75
2022/09/24 09:54:10;;;;;;;13.20;6.85;;;;;;;17.13;72.26;100984.88;4977230;28;20042;-76
2022/09/24 09:56:57;;;;;;;13.25;6.90;;;;;;;17.26;72.16;100987.56;4986891;28;20149;-76
2022/09/24 09:59:32;;;;;;;15.65;7.10;;;;;;;17.21;70.61;100989.16;4978964;28;20496;-76
2022/09/24 10:01:57;;;;;;;13.18;7.28;;;;;;;17.26;69.79;100992.00;4981709;28;20054;-75
2022/09/24 10:04:40;;;;;;;9.13;6.05;;;;;;;17.32;69.08;100992.00;4984154;28;20030;-76
2022/09/24 10:07:14;;;;;;;14.93;6.38;;;;;;;17.41;67.31;100992.66;4970930;28;20042;-76
2022/09/24 10:09:41;;;;;;;30.13;8.23;;;;;;;17.55;67.88;100990.88;4979581;28;20065;-75
2022/09/24 10:12:14;;;;;;;13.20;7.28;;;;;;;17.47;68.48;100997.09;4983204;28;20034;-76
2022/09/24 10:14:40;;;;;;;11.13;6.30;;;;;;;17.50;67.78;100993.31;4983811;28;20049;-76
2022/09/24 10:17:15;;;;;;;9.38;5.28;;;;;;;17.56;67.97;100986.47;4986475;28;20045;-75
2022/09/24 10:19:44;;;;;;;11.57;5.60;;;;;;;17.63;67.17;100987.25;4982764;28;20492;-75
2022/09/24 10:22:20;;;;;;;10.63;6.32;;;;;;;17.52;69.29;100989.47;4986158;28;20458;-76
2022/09/24 10:24:46;;;;;;;10.63;6.03;;;;;;;17.44;68.97;100989.66;4982326;28;20108;-77
2022/09/24 10:27:18;;;;;;;10.98;5.95;;;;;;;17.34;68.35;100983.97;4986606;28;20038;-75
2022/09/24 10:32:28;;;;;;;13.63;7.03;;;;;;;17.06;69.70;100986.66;4981869;28;20543;-76
2022/09/24 10:34:56;;;;;;;8.50;5.55;;;;;;;16.95;70.78;100998.47;4981400;28;20038;-75
2022/09/24 10:37:22;;;;;;;17.10;7.32;;;;;;;16.91;71.38;100999.88;4969451;28;20031;-76
2022/09/24 10:40:21;;;;;;;13.07;6.80;;;;;;;16.91;70.61;100994.63;4987366;28;20463;-76
2022/09/24 10:42:54;;;;;;;12.13;6.57;;;;;;;16.85;72.27;100992.78;4979446;28;20039;-76
2022/09/24 10:45:21;;;;;;;14.75;6.70;;;;;;;16.82;74.55;100993.13;4968793;28;20569;-76
2022/09/24 10:48:08;;;;;;;11.07;6.30;;;;;;;16.80;74.86;100997.75;4986640;28;20638;-76
2022/09/24 10:50:50;;;;;;;10.65;5.47;;;;;;;16.66;74.38;100994.25;4974043;28;20037;-75
2022/09/24 10:53:52;;;;;;;13.27;5.70;;;;;;;16.68;73.96;100995.69;4979353;28;20045;-76
2022/09/24 10:56:23;;;;;;;10.27;5.63;;;;;;;16.68;74.03;100993.06;4983363;28;20042;-75
2022/09/24 10:59:26;;;;;;;10.00;5.72;;;;;;;16.74;74.82;100991.47;4970892;28;20092;-76
2022/09/24 11:02:10;;;;;;;9.45;5.30;;;;;;;16.81;74.14;100991.53;4987724;28;20069;-75
2022/09/24 11:04:48;;;;;;;11.20;5.82;;;;;;;16.87;73.61;100996.03;4998354;28;20111;-75
2022/09/24 11:07:33;;;;;;;10.40;6.60;;;;;;;16.87;73.76;100993.41;4995065;28;20070;-76
2022/09/24 11:10:22;;;;;;;9.68;5.15;;;;;;;16.72;74.26;100996.91;4990192;28;20503;-76
2022/09/24 11:12:59;;;;;;;10.85;6.32;;;;;;;16.65;74.82;101000.47;4987593;28;20726;-76
2022/09/24 11:15:47;;;;;;;11.40;6.68;;;;;;;16.67;74.76;100993.25;4981072;28;20201;-75
2022/09/24 11:18:40;;;;;;;9.65;5.93;;;;;;;16.65;75.46;101001.31;4984819;28;20066;-76
2022/09/24 11:21:27;;;;;;;10.25;6.03;;;;;;;16.73;75.61;100997.75;4978104;28;20403;-75
2022/09/24 11:24:28;;;;;;;11.40;6.93;;;;;;;16.66;75.58;100991.66;4969607;28;20488;-76
2022/09/24 11:27:28;;;;;;;10.95;6.78;;;;;;;16.64;76.20;101004.13;4985689;28;20046;-75
2022/09/24 11:30:05;;;;;;;10.23;5.93;;;;;;;16.72;76.94;100991.66;4985633;28;20053;-75
2022/09/24 11:32:53;;;;;;;8.35;5.07;;;;;;;16.81;76.80;100994.97;4975635;28;20027;-75
2022/09/24 11:35:45;;;;;;;10.80;5.93;;;;;;;16.90;76.37;100991.22;4985105;28;20515;-76
2022/09/24 11:38:41;;;;;;;12.13;6.50;;;;;;;16.88;74.68;100987.19;4986889;28;20034;-76